This is the latest recevied weather packets stored in our database for station/object N7IGG. If no packets are shown the sender has not sent any weather packets the latest 10 day(s).
| Time | Temp. | Humidity | Pressure | Rain* | Wind** | Luminosity | Snow |
|---|---|---|---|---|---|---|---|
| 1777945509 | 22.78° C | 57% | 1009.2 hPa | 0 mm | - | 146 W/m² | - |
| 1777945206 | 23.33° C | 56% | 1009.2 hPa | 0 mm | - | 147 W/m² | - |
| 1777944903 | 23.33° C | 56% | 1009.2 hPa | 0 mm | - | 170 W/m² | - |
| 1777944600 | 23.33° C | 57% | 1009.1 hPa | 0 mm | - | 161 W/m² | - |
| 1777944298 | 23.33° C | 57% | 1009.3 hPa | 0 mm | - | 171 W/m² | - |
| 1777943995 | 23.33° C | 58% | 1009.2 hPa | 0 mm | - | 153 W/m² | - |
| 1777943691 | 23.89° C | 56% | 1009.3 hPa | 0 mm | - | 191 W/m² | - |
| 1777943388 | 23.89° C | 56% | 1009.2 hPa | 0 mm | - | 206 W/m² | - |
| 1777943083 | 23.33° C | 57% | 1009.3 hPa | 0 mm | - | 199 W/m² | - |
| 1777942780 | 23.33° C | 57% | 1009.5 hPa | 0 mm | - | 231 W/m² | - |
| 1777942477 | 23.89° C | 55% | 1009.2 hPa | 0 mm | - | 261 W/m² | - |
| 1777942174 | 23.89° C | 56% | 1009.4 hPa | 0 mm | - | 252 W/m² | - |
| 1777941871 | 23.89° C | 55% | 1009.4 hPa | 0 mm | - | 279 W/m² | - |
| 1777941568 | 23.33° C | 56% | 1009.4 hPa | 0 mm | - | 286 W/m² | - |
| 1777941265 | 23.89° C | 55% | 1009.6 hPa | 0 mm | - | 316 W/m² | - |
| 1777940961 | 25° C | 52% | 1009.3 hPa | 0 mm | - | 316 W/m² | - |
| 1777940658 | 23.89° C | 54% | 1009.5 hPa | 0 mm | - | 291 W/m² | - |
| 1777940356 | 23.33° C | 54% | 1009.6 hPa | 0 mm | - | 357 W/m² | - |
| 1777940053 | 23.89° C | 54% | 1009.4 hPa | 0 mm | - | 346 W/m² | - |
| 1777939750 | 23.89° C | 53% | 1009.4 hPa | 0 mm | - | 415 W/m² | - |
| 1777939448 | 23.89° C | 52% | 1009.6 hPa | 0 mm | - | 382 W/m² | - |
| 1777939144 | 24.44° C | 51% | 1009.3 hPa | 0 mm | - | 418 W/m² | - |
| 1777938842 | 23.89° C | 53% | 1009.3 hPa | 0 mm | - | 336 W/m² | - |
| 1777938538 | 23.33° C | 54% | 1009.5 hPa | 0 mm | - | 443 W/m² | - |
| 1777938235 | 24.44° C | 52% | 1009.6 hPa | 0 mm | - | 451 W/m² | - |
* Rain latest hour (hover to see other rain measurements)
** Current wind speed in m/s (hover to see current wind gust speed)